Time;durP1;ratioP1;P1;durP2;ratioP2;P2;SDS_P1;SDS_P2;PMS_P1;PMS_P2;Temp;Humidity;BMP_temperature;BMP_pressure;BME280_temperature;BME280_humidity;BME280_pressure;Samples;Min_cycle;Max_cycle;Signal;HPM_P1;HPM_P2
2023/08/01 00:01:18;;;;;;;;;2.33;2.33;;;;;19.66;87.15;99660.81;5126767;27;45340;-80
2023/08/01 00:03:43;;;;;;;;;4.67;4.00;;;;;19.68;87.58;99656.97;5118029;27;45399;-80
2023/08/01 00:06:09;;;;;;;;;2.00;2.00;;;;;19.66;87.14;99658.13;5117436;27;45530;-80
2023/08/01 00:08:34;;;;;;;;;3.00;3.00;;;;;19.60;87.77;99653.41;5098904;27;45318;-81
2023/08/01 00:10:59;;;;;;;;;4.33;3.00;;;;;19.51;87.54;99632.78;5117506;27;45468;-80
2023/08/01 00:13:25;;;;;;;;;3.67;3.67;;;;;19.55;87.91;99650.38;5118169;27;45557;-80
2023/08/01 00:15:50;;;;;;;;;2.00;2.00;;;;;19.56;87.60;99654.75;5117241;27;46536;-80
2023/08/01 00:18:15;;;;;;;;;3.00;3.00;;;;;19.56;87.39;99652.91;5117449;27;45286;-81
2023/08/01 00:20:41;;;;;;;;;2.00;2.00;;;;;19.65;87.06;99657.28;5117408;27;45368;-80
2023/08/01 00:23:06;;;;;;;;;2.33;2.33;;;;;19.63;87.43;99658.47;5117677;27;45567;-80
2023/08/01 00:25:32;;;;;;;;;2.00;2.00;;;;;19.63;87.09;99653.06;5116939;27;46198;-80
2023/08/01 00:27:57;;;;;;;;;2.67;2.00;;;;;19.65;87.52;99657.28;5117459;27;45219;-80
2023/08/01 00:30:23;;;;;;;;;2.67;2.67;;;;;19.51;87.42;99625.53;5117690;27;45754;-80
2023/08/01 00:32:48;;;;;;;;;3.67;2.33;;;;;19.48;87.57;99625.88;5117116;27;49706;-80
2023/08/01 00:35:13;;;;;;;;;2.00;2.00;;;;;19.55;87.39;99632.34;5116933;27;45286;-80
2023/08/01 00:37:39;;;;;;;;;3.00;3.00;;;;;19.61;87.07;99638.91;5117102;27;45174;-80
2023/08/01 00:40:05;;;;;;;;;3.33;3.33;;;;;19.56;87.33;99631.31;5117063;27;45518;-81
2023/08/01 00:42:30;;;;;;;;;3.00;3.00;;;;;19.55;87.55;99634.19;5117321;27;45467;-80
2023/08/01 00:44:55;;;;;;;;;1.33;1.33;;;;;19.54;87.33;99637.88;5118842;27;45451;-80
2023/08/01 00:47:21;;;;;;;;;2.33;2.33;;;;;19.51;86.84;99627.41;5101402;27;67968;-78
2023/08/01 00:49:46;;;;;;;;;3.00;3.00;;;;;19.55;86.91;99634.19;5120817;27;45474;-80
2023/08/01 00:52:12;;;;;;;;;3.00;3.00;;;;;19.41;86.97;99612.25;5120922;27;45366;-79
2023/08/01 00:54:37;;;;;;;;;2.00;2.00;;;;;19.42;86.83;99613.91;5125959;27;45320;-80
2023/08/01 00:57:04;;;;;;;;;3.00;3.00;;;;;19.48;87.11;99616.94;5141425;27;45459;-80
2023/08/01 01:00:07;;;;;;;;;2.67;2.67;;;;;19.53;87.01;99628.06;5136501;27;45420;-80
2023/08/01 01:02:33;;;;;;;;;2.00;2.00;;;;;19.55;86.72;99626.09;5121053;27;45397;-80
2023/08/01 01:04:58;;;;;;;;;1.67;1.67;;;;;19.47;86.80;99605.31;5120581;27;45373;-80
2023/08/01 01:07:23;;;;;;;;;3.00;3.00;;;;;19.57;87.31;99621.38;5120219;27;45547;-80
2023/08/01 01:09:50;;;;;;;;;2.00;2.00;;;;;19.54;86.90;99617.13;5125521;27;45583;-80
2023/08/01 01:12:15;;;;;;;;;3.00;3.00;;;;;19.48;87.64;99601.63;5141784;27;45610;-80
2023/08/01 01:14:40;;;;;;;;;2.00;2.00;;;;;19.53;88.20;99615.47;5140156;27;65887;-79
2023/08/01 01:17:06;;;;;;;;;2.00;2.00;;;;;19.49;88.54;99616.78;5122734;27;45759;-81
2023/08/01 01:19:31;;;;;;;;;3.67;2.00;;;;;19.48;89.33;99660.09;5122115;27;45330;-79
2023/08/01 01:22:19;;;;;;;;;2.33;2.33;;;;;19.36;96.12;99678.44;5141537;27;45704;-80
2023/08/01 01:24:46;;;;;;;;;1.00;1.00;;;;;18.82;100.00;99667.97;5140407;27;45989;-80
2023/08/01 01:27:12;;;;;;;;;1.00;1.00;;;;;18.60;100.00;99692.72;5140836;27;45385;-79
2023/08/01 01:29:40;;;;;;;;;1.00;1.00;;;;;18.38;100.00;99669.03;5121520;27;45406;-79
2023/08/01 01:32:06;;;;;;;;;0.00;0.00;;;;;18.33;100.00;99679.41;5137090;27;45355;-80
2023/08/01 01:34:31;;;;;;;;;1.00;0.00;;;;;18.27;100.00;99679.06;5120469;27;46634;-80
2023/08/01 01:36:57;;;;;;;;;2.00;1.00;;;;;18.31;100.00;99686.81;5119583;27;59656;-80
2023/08/01 01:39:22;;;;;;;;;0.00;0.00;;;;;18.31;100.00;99692.19;5120266;27;45340;-80
2023/08/01 01:41:47;;;;;;;;;0.00;0.00;;;;;18.31;100.00;99692.19;5120454;27;45532;-80
2023/08/01 01:44:13;;;;;;;;;0.00;0.00;;;;;18.36;100.00;99696.13;5119559;27;52006;-80
2023/08/01 01:46:38;;;;;;;;;0.00;0.00;;;;;18.35;100.00;99683.63;5119789;27;45293;-80
2023/08/01 01:49:03;;;;;;;;;0.00;0.00;;;;;18.47;100.00;99697.69;5101057;27;49439;-80
2023/08/01 01:51:30;;;;;;;;;0.00;0.00;;;;;18.51;100.00;99686.47;5120356;27;45645;-80
2023/08/01 01:53:56;;;;;;;;;0.00;0.00;;;;;18.54;100.00;99687.97;5119668;27;45372;-80
2023/08/01 01:56:21;;;;;;;;;0.00;0.00;;;;;18.56;100.00;99699.44;5118753;27;45393;-79
2023/08/01 01:58:46;;;;;;;;;1.00;0.00;;;;;18.47;100.00;99692.28;5119835;27;45270;-80
2023/08/01 02:01:12;;;;;;;;;0.00;0.00;;;;;18.44;100.00;99689.94;5139400;27;45286;-80
2023/08/01 02:03:37;;;;;;;;;0.00;0.00;;;;;18.44;100.00;99708.78;5140347;27;48728;-80
2023/08/01 02:06:03;;;;;;;;;0.00;0.00;;;;;18.34;100.00;99697.25;5120451;27;45389;-79
2023/08/01 02:08:29;;;;;;;;;0.00;0.00;;;;;18.31;99.77;99702.97;5119707;27;45389;-80
2023/08/01 02:10:57;;;;;;;;;0.00;0.00;;;;;18.33;99.99;99696.41;5136667;27;45536;-80
2023/08/01 02:13:23;;;;;;;;;0.00;0.00;;;;;18.28;100.00;99683.44;5140179;27;46190;-79
2023/08/01 02:15:48;;;;;;;;;0.00;0.00;;;;;18.14;99.50;99665.16;5140035;27;45241;-81
2023/08/01 02:18:13;;;;;;;;;0.00;0.00;;;;;18.22;100.00;99699.34;5139746;27;52282;-80
2023/08/01 02:20:39;;;;;;;;;0.00;0.00;;;;;18.19;99.24;99711.28;5139788;27;45458;-80
2023/08/01 02:23:04;;;;;;;;;1.00;0.00;;;;;18.14;98.42;99713.59;5139739;27;45199;-80
2023/08/01 02:25:29;;;;;;;;;1.00;1.00;;;;;18.12;98.69;99712.91;5140044;27;45291;-79
2023/08/01 02:27:55;;;;;;;;;0.00;0.00;;;;;18.05;98.01;99711.84;5139302;27;57868;-80
2023/08/01 02:30:20;;;;;;;;;0.00;0.00;;;;;18.01;98.41;99718.53;5116666;27;45550;-80
2023/08/01 02:32:45;;;;;;;;;0.00;0.00;;;;;18.02;97.95;99730.16;5105439;27;48186;-81
2023/08/01 02:35:11;;;;;;;;;0.00;0.00;;;;;17.92;96.96;99720.28;5119100;27;45321;-80
2023/08/01 02:37:36;;;;;;;;;1.00;1.00;;;;;17.91;97.06;99723.16;5127478;27;45433;-80
2023/08/01 02:40:07;;;;;;;;;1.00;1.00;;;;;17.96;97.20;99737.81;5109607;27;45540;-80
2023/08/01 02:42:32;;;;;;;;;1.00;1.00;;;;;17.95;96.52;99727.22;5121371;27;47039;-80
2023/08/01 02:44:57;;;;;;;;;1.67;1.00;;;;;17.96;96.67;99742.34;5140731;27;45400;-79
2023/08/01 02:47:23;;;;;;;;;0.00;0.00;;;;;17.91;96.65;99739.28;5140221;27;45410;-79
2023/08/01 02:49:48;;;;;;;;;1.00;1.00;;;;;17.88;96.02;99740.44;5139149;27;45218;-80
2023/08/01 02:52:13;;;;;;;;;2.33;1.00;;;;;17.71;95.23;99729.66;5139240;27;58045;-80
2023/08/01 02:54:39;;;;;;;;;1.33;1.00;;;;;17.84;95.49;99743.56;5139483;27;45189;-79
2023/08/01 02:57:04;;;;;;;;;2.00;1.00;;;;;17.81;95.29;99754.66;5139973;27;45337;-80
2023/08/01 02:59:32;;;;;;;;;1.00;1.00;;;;;17.79;94.49;99751.28;5138184;27;45393;-80
2023/08/01 03:01:58;;;;;;;;;1.00;1.00;;;;;17.76;93.67;99752.41;5139333;27;45390;-79
2023/08/01 03:04:23;;;;;;;;;1.00;1.00;;;;;17.69;93.86;99756.69;5138843;27;45462;-78
2023/08/01 03:06:49;;;;;;;;;1.00;1.00;;;;;17.51;92.89;99743.22;5139213;27;45543;-79
2023/08/01 03:09:14;;;;;;;;;1.00;1.00;;;;;17.52;92.83;99744.91;5138642;27;52613;-80
2023/08/01 03:11:39;;;;;;;;;2.00;1.00;;;;;17.68;93.32;99769.31;5139134;27;45988;-79
2023/08/01 03:14:05;;;;;;;;;0.00;0.00;;;;;17.62;93.01;99756.44;5130316;27;45469;-79
2023/08/01 03:16:31;;;;;;;;;0.00;0.00;;;;;17.68;92.84;99772.00;5139287;27;45454;-80
2023/08/01 03:18:56;;;;;;;;;1.00;1.00;;;;;17.56;92.67;99761.56;5139429;27;45256;-80
2023/08/01 03:21:22;;;;;;;;;1.00;1.00;;;;;17.53;93.19;99773.47;5138825;27;46184;-80
2023/08/01 03:23:47;;;;;;;;;1.00;1.00;;;;;17.55;93.50;99774.16;5132097;27;45416;-80
2023/08/01 03:26:12;;;;;;;;;3.00;1.00;;;;;17.62;92.93;99782.50;5118173;27;45545;-79
2023/08/01 03:28:38;;;;;;;;;1.00;1.00;;;;;17.64;92.79;99783.19;5132959;27;45228;-79
2023/08/01 03:31:03;;;;;;;;;0.33;0.33;;;;;17.69;92.61;99784.44;5117827;27;53109;-80
2023/08/01 03:33:29;;;;;;;;;1.00;1.00;;;;;17.72;92.71;99788.69;5099955;27;45203;-79
2023/08/01 03:35:54;;;;;;;;;1.33;1.33;;;;;17.72;91.88;99788.69;5118381;27;45756;-78
2023/08/01 03:38:19;;;;;;;;;1.00;1.00;;;;;17.68;92.10;99798.88;5122624;27;45474;-79
2023/08/01 03:40:45;;;;;;;;;1.00;1.00;;;;;17.67;91.92;99805.22;5139102;27;45212;-79
2023/08/01 03:43:10;;;;;;;;;2.67;1.00;;;;;17.60;91.65;99806.84;5138339;27;45304;-80
2023/08/01 03:45:36;;;;;;;;;2.00;2.00;;;;;17.53;92.25;99799.50;5138425;27;56573;-80
2023/08/01 03:48:01;;;;;;;;;1.33;1.33;;;;;17.52;91.02;99795.97;5138589;27;45509;-80
2023/08/01 03:50:26;;;;;;;;;2.00;2.00;;;;;17.54;89.71;99812.81;5138475;27;46964;-79
2023/08/01 03:52:52;;;;;;;;;2.00;2.00;;;;;17.34;87.97;99800.47;5138523;27;45417;-80
2023/08/01 03:55:17;;;;;;;;;2.00;2.00;;;;;17.34;88.12;99813.91;5138652;27;45270;-79
2023/08/01 03:57:43;;;;;;;;;1.00;1.00;;;;;17.31;89.12;99811.50;5138951;27;45445;-80
2023/08/01 04:00:14;;;;;;;;;2.67;1.67;;;;;17.30;88.47;99816.03;5121201;27;45407;-80
2023/08/01 04:02:43;;;;;;;;;3.00;1.67;;;;;17.28;88.65;99814.47;5137450;27;45264;-80
2023/08/01 04:05:08;;;;;;;;;1.33;1.33;;;;;17.27;89.51;99813.63;5099427;27;45371;-80
2023/08/01 04:07:35;;;;;;;;;1.67;1.67;;;;;17.29;88.81;99808.09;5117795;27;45402;-80
2023/08/01 04:10:01;;;;;;;;;1.33;1.00;;;;;17.36;87.60;99819.97;5117471;27;46113;-80
2023/08/01 04:12:26;;;;;;;;;1.00;1.00;;;;;17.22;87.20;99817.78;5117677;27;45344;-80
2023/08/01 04:14:52;;;;;;;;;1.33;1.33;;;;;17.22;86.42;99812.41;5121045;27;45605;-79
2023/08/01 04:17:17;;;;;;;;;1.00;1.00;;;;;17.16;86.56;99808.44;5138721;27;45230;-80
2023/08/01 04:19:42;;;;;;;;;2.00;2.00;;;;;17.19;86.44;99815.34;5137226;27;45386;-79
2023/08/01 04:22:09;;;;;;;;;1.00;1.00;;;;;17.24;86.35;99824.69;5138046;27;56916;-80
2023/08/01 04:24:34;;;;;;;;;1.00;1.00;;;;;17.00;86.39;99797.47;5137104;27;45361;-79
2023/08/01 04:26:59;;;;;;;;;1.00;1.00;;;;;17.09;86.83;99821.63;5117574;27;45492;-80
2023/08/01 04:29:25;;;;;;;;;2.00;1.67;;;;;16.97;86.94;99808.53;5116938;27;46074;-80
2023/08/01 04:31:50;;;;;;;;;1.00;1.00;;;;;17.06;87.04;99830.00;5117536;27;45282;-80
2023/08/01 04:34:15;;;;;;;;;1.67;1.67;;;;;17.01;87.43;99823.34;5130045;27;45291;-81
2023/08/01 04:36:41;;;;;;;;;1.67;1.67;;;;;17.05;87.55;99830.09;5138385;27;45655;-80
2023/08/01 04:39:06;;;;;;;;;1.00;1.00;;;;;16.96;87.39;99805.00;5137458;27;45794;-80
2023/08/01 04:41:31;;;;;;;;;2.00;2.00;;;;;17.15;86.78;99822.88;5137637;27;46287;-79
2023/08/01 04:43:57;;;;;;;;;3.00;2.00;;;;;17.23;86.27;99827.53;5137655;27;53728;-81
2023/08/01 04:46:22;;;;;;;;;1.67;1.67;;;;;17.29;85.58;99821.53;5118647;27;45594;-79
2023/08/01 04:48:47;;;;;;;;;3.00;3.00;;;;;17.26;84.79;99806.56;5112285;27;45391;-80
2023/08/01 04:51:13;;;;;;;;;3.00;2.00;;;;;17.36;84.31;99814.59;5117327;27;45319;-80
2023/08/01 04:53:38;;;;;;;;;1.00;1.00;;;;;17.39;83.47;99806.22;5117113;27;45432;-79
2023/08/01 04:56:03;;;;;;;;;3.00;3.00;;;;;17.47;82.52;99827.00;5117208;27;45544;-80
2023/08/01 04:58:30;;;;;;;;;3.00;3.00;;;;;17.49;82.55;99831.22;5120168;27;45731;-80
2023/08/01 05:00:56;;;;;;;;;4.33;2.00;;;;;17.51;82.31;99833.78;5124727;27;45473;-80
2023/08/01 05:03:21;;;;;;;;;2.00;2.00;;;;;17.38;81.46;99796.47;5137784;27;45431;-79
2023/08/01 05:05:46;;;;;;;;;2.33;2.00;;;;;17.56;81.40;99826.94;5134364;27;45245;-80
2023/08/01 05:08:12;;;;;;;;;3.33;3.00;;;;;17.42;81.40;99805.09;5131333;27;58379;-80
2023/08/01 05:10:37;;;;;;;;;2.00;2.00;;;;;17.64;80.95;99831.59;5137194;27;45414;-80
2023/08/01 05:13:02;;;;;;;;;2.00;2.00;;;;;17.56;80.25;99818.03;5137349;27;50090;-80
2023/08/01 05:15:28;;;;;;;;;3.67;3.33;;;;;17.74;80.07;99839.63;5129306;27;45595;-80
2023/08/01 05:17:54;;;;;;;;;2.00;2.00;;;;;17.71;80.34;99834.53;5116279;27;46012;-80
2023/08/01 05:20:19;;;;;;;;;4.33;3.00;;;;;17.79;79.75;99845.41;5116712;27;45368;-81
2023/08/01 05:22:44;;;;;;;;;2.33;2.33;;;;;17.80;79.63;99847.94;5117263;27;45273;-80
2023/08/01 05:25:09;;;;;;;;;5.00;3.00;;;;;17.75;79.36;99852.94;5121655;27;45217;-80
2023/08/01 05:27:35;;;;;;;;;2.00;2.00;;;;;17.52;79.21;99814.78;5137164;27;45996;-81
2023/08/01 05:30:00;;;;;;;;;5.00;4.00;;;;;17.76;78.44;99859.16;5124635;27;45399;-82
2023/08/01 05:32:25;;;;;;;;;4.00;4.00;;;;;17.67;78.84;99837.50;5133922;27;45407;-81
2023/08/01 05:34:51;;;;;;;;;5.00;3.33;;;;;17.73;78.47;99851.38;5137816;27;45470;-83
2023/08/01 05:37:16;;;;;;;;;2.33;2.33;;;;;17.76;78.27;99854.63;5128317;27;47920;-87
2023/08/01 05:39:42;;;;;;;;;3.00;3.00;;;;;17.79;77.69;99848.09;5128846;27;45429;-83
2023/08/01 05:42:08;;;;;;;;;4.33;3.00;;;;;17.76;77.51;99870.75;5137952;27;45289;-83
2023/08/01 05:44:34;;;;;;;;;3.00;2.00;;;;;17.57;77.89;99850.13;5141431;27;45469;-79
2023/08/01 05:46:59;;;;;;;;;3.00;2.00;;;;;17.59;77.74;99874.22;5107399;27;47559;-82
2023/08/01 05:49:25;;;;;;;;;4.67;3.00;;;;;17.58;77.90;99873.38;5124152;27;45342;-83
2023/08/01 05:51:50;;;;;;;;;2.67;2.33;;;;;17.55;77.77;99865.56;5123266;27;45429;-82
2023/08/01 05:54:15;;;;;;;;;3.33;2.00;;;;;17.70;76.71;99871.34;5121921;27;45539;-80
2023/08/01 05:56:41;;;;;;;;;2.00;2.00;;;;;17.69;76.50;99878.56;5139146;27;45427;-85
2023/08/01 05:59:06;;;;;;;;;3.67;2.67;;;;;17.56;76.58;99853.81;5123363;27;45943;-84
2023/08/01 06:01:31;;;;;;;;;6.33;6.00;;;;;17.64;76.65;99870.06;5126098;27;45260;-87
2023/08/01 06:03:57;;;;;;;;;3.00;2.00;;;;;18.00;76.04;99872.91;5143152;27;45247;-86
2023/08/01 06:06:22;;;;;;;;;2.00;2.00;;;;;18.25;74.65;99872.16;5141013;27;46178;-83
2023/08/01 06:08:48;;;;;;;;;6.67;4.67;;;;;18.27;75.10;99858.53;5140721;27;45250;-82
2023/08/01 06:11:13;;;;;;;;;4.67;3.00;;;;;18.61;73.17;99887.44;5120968;27;45447;-82
2023/08/01 06:13:38;;;;;;;;;3.00;2.00;;;;;18.64;71.67;99874.59;5141813;27;45476;-81
2023/08/01 06:16:04;;;;;;;;;4.33;4.33;;;;;18.78;72.04;99868.63;5140673;27;46059;-83
2023/08/01 06:18:29;;;;;;;;;5.67;4.00;;;;;18.88;71.74;99860.47;5140856;27;45426;-82
2023/08/01 06:20:55;;;;;;;;;4.00;4.00;;;;;19.06;71.36;99877.44;5122818;27;45564;-86
2023/08/01 06:23:20;;;;;;;;;2.67;2.00;;;;;19.17;70.35;99875.50;5140398;27;45338;-84
2023/08/01 06:25:45;;;;;;;;;3.00;3.00;;;;;19.15;69.42;99881.03;5140471;27;46232;-83
2023/08/01 06:28:11;;;;;;;;;3.00;3.00;;;;;19.13;69.73;99874.94;5140344;27;45210;-84
2023/08/01 06:30:36;;;;;;;;;5.33;3.67;;;;;19.25;68.75;99892.53;5140566;27;45216;-84
2023/08/01 06:33:02;;;;;;;;;4.67;4.67;;;;;19.29;68.19;99896.63;5119619;27;45631;-82
2023/08/01 06:35:27;;;;;;;;;3.67;3.67;;;;;19.29;69.14;99879.63;5119208;27;46037;-85
2023/08/01 06:37:52;;;;;;;;;3.00;3.00;;;;;19.35;68.72;99900.53;5110099;27;45381;-82
2023/08/01 06:40:18;;;;;;;;;5.00;4.00;;;;;19.49;68.36;99905.34;5138827;27;52444;-79
2023/08/01 06:42:43;;;;;;;;;4.00;4.00;;;;;19.50;68.33;99906.19;5138984;27;45481;-81
2023/08/01 06:45:09;;;;;;;;;3.00;3.00;;;;;19.52;68.70;99906.84;5139557;27;45487;-82
2023/08/01 06:47:34;;;;;;;;;4.00;4.00;;;;;19.44;67.78;99896.88;5139236;27;45338;-82
2023/08/01 06:49:59;;;;;;;;;4.00;3.00;;;;;19.70;67.20;99904.97;5138703;27;57702;-80
2023/08/01 06:52:25;;;;;;;;;4.67;4.67;;;;;19.84;66.61;99909.75;5139592;27;45390;-81
2023/08/01 06:54:50;;;;;;;;;3.00;3.00;;;;;19.61;66.54;99877.09;5139675;27;46257;-81
2023/08/01 06:57:16;;;;;;;;;4.00;4.00;;;;;19.61;66.53;99904.09;5139236;27;45406;-82
2023/08/01 06:59:41;;;;;;;;;6.33;4.00;;;;;19.52;66.75;99912.25;5139626;27;45438;-82
2023/08/01 07:02:08;;;;;;;;;6.00;4.33;;;;;19.44;67.00;99930.09;5121019;27;45361;-82
2023/08/01 07:04:34;;;;;;;;;4.00;4.00;;;;;19.33;66.75;99919.56;5139090;27;45403;-80
2023/08/01 07:07:00;;;;;;;;;9.67;4.33;;;;;19.33;66.96;99919.56;5120278;27;45313;-79
2023/08/01 07:09:25;;;;;;;;;7.00;5.00;;;;;19.38;67.55;99925.31;5120463;27;45278;-81
2023/08/01 07:11:50;;;;;;;;;5.00;3.00;;;;;19.45;67.20;99923.69;5139564;27;45622;-81
2023/08/01 07:14:16;;;;;;;;;4.33;4.33;;;;;19.50;66.44;99927.75;5120293;27;46041;-81
2023/08/01 07:16:41;;;;;;;;;8.00;4.00;;;;;19.52;66.81;99936.53;5139128;27;45219;-82
2023/08/01 07:19:06;;;;;;;;;7.00;6.33;;;;;19.57;67.00;99928.84;5139144;27;45422;-81
2023/08/01 07:21:32;;;;;;;;;4.00;4.00;;;;;19.61;66.52;99914.88;5139321;27;45532;-82
2023/08/01 07:23:57;;;;;;;;;7.33;4.33;;;;;19.73;65.20;99937.03;5138629;27;45453;-82
2023/08/01 07:26:23;;;;;;;;;4.00;3.33;;;;;19.77;65.34;99935.69;5138942;27;45445;-82
2023/08/01 07:28:48;;;;;;;;;5.00;3.33;;;;;19.58;64.68;99936.78;5139249;27;45383;-82
2023/08/01 07:31:14;;;;;;;;;6.00;3.00;;;;;19.52;65.94;99939.22;5139287;27;45583;-80
2023/08/01 07:33:39;;;;;;;;;2.00;2.00;;;;;19.55;66.24;99931.72;5138734;27;46174;-80
2023/08/01 07:36:05;;;;;;;;;4.00;4.00;;;;;19.58;66.57;99941.31;5138762;27;45471;-81
2023/08/01 07:38:33;;;;;;;;;6.00;5.00;;;;;19.55;65.23;99922.78;5138803;27;45445;-82
2023/08/01 07:41:03;;;;;;;;;2.67;2.33;;;;;19.60;65.14;99950.94;5138969;27;45637;-81
2023/08/01 07:43:29;;;;;;;;;3.00;3.00;;;;;19.58;65.42;99933.25;5138554;27;46173;-81
2023/08/01 07:45:58;;;;;;;;;4.67;4.67;;;;;19.78;64.36;99948.16;5119875;27;45416;-81
2023/08/01 07:48:24;;;;;;;;;5.00;4.00;;;;;19.83;64.37;99948.56;5138963;27;45260;-80
2023/08/01 07:50:49;;;;;;;;;2.67;2.67;;;;;19.90;64.24;99952.28;5139145;27;45458;-80
2023/08/01 07:53:15;;;;;;;;;5.00;5.00;;;;;19.86;63.99;99928.50;5138083;27;45383;-81
2023/08/01 07:55:41;;;;;;;;;4.67;4.67;;;;;19.99;63.31;99959.41;5137653;27;45192;-82
2023/08/01 07:58:06;;;;;;;;;4.00;4.00;;;;;19.84;63.70;99942.16;5138510;27;45397;-82
2023/08/01 08:00:31;;;;;;;;;4.00;4.00;;;;;19.81;64.25;99937.06;5138667;27;45381;-81
2023/08/01 08:02:57;;;;;;;;;2.00;2.00;;;;;19.99;63.16;99948.63;5138272;27;45507;-81
2023/08/01 08:05:22;;;;;;;;;3.67;3.67;;;;;19.92;63.56;99960.22;5138783;27;45509;-80
2023/08/01 08:07:47;;;;;;;;;5.67;5.67;;;;;20.03;63.94;99965.31;5138254;27;45469;-81
2023/08/01 08:10:14;;;;;;;;;4.67;4.00;;;;;20.17;63.47;99963.88;5138530;27;45585;-81
2023/08/01 08:12:39;;;;;;;;;4.67;3.00;;;;;20.26;63.40;99952.09;5138272;27;46217;-81
2023/08/01 08:15:05;;;;;;;;;6.67;5.33;;;;;20.19;62.74;99951.06;5138343;27;45336;-82
2023/08/01 08:17:30;;;;;;;;;3.67;3.67;;;;;20.35;63.01;99964.63;5138333;27;45278;-81
2023/08/01 08:19:56;;;;;;;;;6.00;4.67;;;;;20.44;62.51;99960.09;5139097;27;45333;-81
2023/08/01 08:22:21;;;;;;;;;5.33;4.33;;;;;20.58;62.21;99963.03;5138407;27;45989;-80
2023/08/01 08:24:46;;;;;;;;;2.67;2.67;;;;;20.68;61.46;99946.66;5138239;27;45238;-82
2023/08/01 08:27:13;;;;;;;;;5.33;4.67;;;;;20.80;61.20;99950.72;5119207;27;47134;-79
2023/08/01 08:29:38;;;;;;;;;3.33;2.67;;;;;20.98;60.64;99969.50;5138521;27;45320;-81
2023/08/01 08:32:04;;;;;;;;;3.00;2.00;;;;;20.93;60.48;99963.75;5137856;27;46002;-81
2023/08/01 08:34:29;;;;;;;;;4.67;1.67;;;;;21.02;60.08;99941.13;5137811;27;45328;-80
2023/08/01 08:36:54;;;;;;;;;3.67;3.67;;;;;21.33;58.81;99960.22;5138808;27;45336;-83
2023/08/01 08:39:20;;;;;;;;;4.00;4.00;;;;;21.15;58.61;99949.56;5139890;27;45266;-79
2023/08/01 08:41:47;;;;;;;;;2.33;2.33;;;;;21.41;57.89;99970.19;5138902;27;56180;-79
2023/08/01 08:44:16;;;;;;;;;5.67;3.67;;;;;21.42;56.73;99963.78;5119366;27;45389;-82
2023/08/01 08:46:43;;;;;;;;;2.33;2.33;;;;;21.37;57.11;99972.41;5138126;27;45410;-81
2023/08/01 08:49:09;;;;;;;;;5.33;4.00;;;;;21.34;58.25;99955.66;5138432;27;45248;-80
2023/08/01 08:51:36;;;;;;;;;4.25;3.00;;;;;21.48;57.88;99968.50;5137680;27;46629;-81
2023/08/01 08:54:02;;;;;;;;;5.00;3.00;;;;;21.42;57.09;99967.31;5137743;27;45290;-80
2023/08/01 08:56:28;;;;;;;;;3.00;2.50;;;;;21.43;57.30;99976.28;5138091;27;45515;-81
2023/08/01 08:58:55;;;;;;;;;2.25;2.25;;;;;21.41;57.00;99964.78;5138183;27;45427;-80
2023/08/01 09:01:20;;;;;;;;;3.50;2.75;;;;;21.39;57.12;99961.41;5137559;27;46372;-80
2023/08/01 09:03:46;;;;;;;;;6.33;4.00;;;;;21.64;56.88;99982.00;5137656;27;45414;-81
2023/08/01 09:06:16;;;;;;;;;7.00;4.00;;;;;21.63;56.80;99974.91;5139648;27;45360;-81
2023/08/01 09:08:51;;;;;;;;;2.00;1.75;;;;;21.72;55.51;99968.44;5141972;27;45262;-82
2023/08/01 09:11:16;;;;;;;;;4.25;1.75;;;;;21.63;55.74;99969.50;5142251;27;45341;-80
2023/08/01 09:13:42;;;;;;;;;6.00;5.00;;;;;21.75;56.41;99973.53;5141755;27;45261;-81
2023/08/01 09:16:09;;;;;;;;;3.00;2.00;;;;;21.75;56.60;99973.53;5122923;27;45362;-81
2023/08/01 09:18:35;;;;;;;;;3.75;2.75;;;;;22.00;55.22;99986.97;5142043;27;45486;-80
2023/08/01 09:21:02;;;;;;;;;3.00;3.00;;;;;22.10;54.45;99984.94;5123135;27;46395;-80
2023/08/01 09:23:28;;;;;;;;;6.25;4.50;;;;;22.15;53.18;99979.03;5141471;27;45208;-79
2023/08/01 09:25:53;;;;;;;;;22.67;13.67;;;;;22.10;54.06;99979.53;5141130;27;45275;-81
2023/08/01 09:28:20;;;;;;;;;4.33;4.33;;;;;21.96;54.88;99974.81;5141430;27;45532;-81
2023/08/01 09:30:50;;;;;;;;;5.00;5.00;;;;;21.87;54.97;99973.97;5141267;27;45404;-81
2023/08/01 09:33:16;;;;;;;;;4.00;3.50;;;;;21.46;54.75;99975.94;5141027;27;45324;-82
2023/08/01 09:35:44;;;;;;;;;4.00;3.00;;;;;21.38;56.01;99968.69;5141746;27;45437;-80
2023/08/01 09:38:10;;;;;;;;;4.00;4.00;;;;;21.75;53.91;99980.81;5142564;27;45516;-82
2023/08/01 09:40:39;;;;;;;;;5.75;3.75;;;;;21.99;54.06;99991.53;5143491;27;45442;-81
2023/08/01 09:43:05;;;;;;;;;5.00;4.00;;;;;21.99;54.09;99975.31;5144282;27;45395;-81
2023/08/01 09:45:31;;;;;;;;;8.67;3.33;;;;;22.09;53.88;99977.84;5143750;27;45402;-81
2023/08/01 09:47:57;;;;;;;;;5.75;4.75;;;;;22.33;53.08;99983.16;5124946;27;45322;-81
2023/08/01 09:50:24;;;;;;;;;4.75;2.25;;;;;22.41;52.66;99978.75;5142177;27;45393;-80
2023/08/01 09:52:52;;;;;;;;;4.00;2.00;;;;;22.34;52.42;99989.44;5142378;27;45203;-81
2023/08/01 09:55:32;;;;;;;;;4.75;4.25;;;;;22.05;51.70;99915.06;5142043;27;45402;-81
2023/08/01 09:57:59;;;;;;;;;8.00;3.75;;;;;22.26;51.64;99975.91;5142930;27;45509;-80
2023/08/01 10:00:29;;;;;;;;;0.50;0.50;;;;;22.30;51.67;99982.69;5122324;27;45589;-81
2023/08/01 10:03:00;;;;;;;;;2.00;2.00;;;;;22.12;52.06;99974.78;5141141;27;45366;-81
2023/08/01 10:05:29;;;;;;;;;2.00;2.00;;;;;22.03;52.39;99986.66;5141758;27;45278;-80
2023/08/01 10:07:58;;;;;;;;;4.75;3.75;;;;;21.86;51.88;99983.13;5140389;27;45649;-81
2023/08/01 10:10:25;;;;;;;;;2.00;2.00;;;;;21.72;52.03;99979.28;5121833;27;48166;-80
2023/08/01 10:12:51;;;;;;;;;5.00;5.00;;;;;21.65;52.81;99974.75;5121165;27;45342;-80
2023/08/01 10:15:16;;;;;;;;;3.50;3.50;;;;;21.61;53.17;99976.06;5140241;27;45398;-81
2023/08/01 10:17:42;;;;;;;;;3.75;3.00;;;;;21.62;53.59;99989.47;5139497;27;45587;-82
2023/08/01 10:20:08;;;;;;;;;2.25;2.25;;;;;21.56;54.52;99984.72;5140637;27;46015;-81
2023/08/01 10:22:35;;;;;;;;;5.75;3.00;;;;;21.62;54.72;99988.63;5125994;27;45386;-79
2023/08/01 10:25:00;;;;;;;;;4.00;3.50;;;;;21.58;54.71;99988.09;5140444;27;45457;-81
2023/08/01 10:27:26;;;;;;;;;4.67;4.67;;;;;21.91;54.16;99988.88;5139832;27;45529;-82
2023/08/01 10:29:59;;;;;;;;;8.50;4.75;;;;;22.17;53.55;99987.81;5139651;27;45381;-81
2023/08/01 10:32:38;;;;;;;;;2.50;2.50;;;;;22.29;53.38;99986.41;5139890;27;45491;-82
2023/08/01 10:35:06;;;;;;;;;4.75;2.50;;;;;22.25;52.88;99952.53;5140157;27;45353;-78
2023/08/01 10:37:42;;;;;;;;;7.75;6.25;;;;;22.44;51.46;99973.81;5140321;27;45222;-82
2023/08/01 10:40:08;;;;;;;;;4.75;4.75;;;;;22.56;51.44;99974.25;5139364;27;46103;-82
2023/08/01 10:42:41;;;;;;;;;4.75;3.50;;;;;22.54;51.85;99981.72;5121190;27;45492;-82
2023/08/01 10:45:20;;;;;;;;;3.00;3.00;;;;;22.34;50.83;99995.69;5120946;27;45367;-81
2023/08/01 10:47:45;;;;;;;;;4.00;3.25;;;;;22.09;51.70;99985.97;5121213;27;45422;-81
2023/08/01 10:50:15;;;;;;;;;6.25;3.00;;;;;22.10;51.89;99998.50;5139374;27;45250;-80
2023/08/01 10:52:41;;;;;;;;;5.75;4.25;;;;;22.25;51.08;99994.03;5139830;27;45253;-81
2023/08/01 10:55:07;;;;;;;;;4.25;3.00;;;;;22.61;51.54;100004.34;5139678;27;45266;-82
2023/08/01 10:57:35;;;;;;;;;5.00;3.50;;;;;22.74;50.95;99992.94;5140355;27;45443;-81
2023/08/01 11:00:01;;;;;;;;;4.50;3.50;;;;;22.81;49.91;99989.34;5140046;27;46281;-80
2023/08/01 11:02:28;;;;;;;;;3.00;2.75;;;;;23.02;50.41;99994.13;5139671;27;45380;-81
2023/08/01 11:05:03;;;;;;;;;4.00;4.00;;;;;23.01;50.16;99986.16;5121049;27;45451;-82
2023/08/01 11:07:29;;;;;;;;;5.00;4.00;;;;;23.21;49.57;99998.22;5139596;27;45573;-81
2023/08/01 11:10:11;;;;;;;;;9.25;8.50;;;;;23.28;48.47;100001.88;5120472;27;46873;-81
2023/08/01 11:12:41;;;;;;;;;2.75;1.00;;;;;23.33;46.40;100006.78;5139425;27;45426;-82
2023/08/01 11:15:09;;;;;;;;;4.00;2.00;;;;;23.35;45.78;99994.72;5139534;27;45254;-81
2023/08/01 11:17:39;;;;;;;;;1.75;1.75;;;;;23.41;47.01;99998.56;5139776;27;45500;-81
2023/08/01 11:20:07;;;;;;;;;2.00;2.00;;;;;23.37;46.54;99975.53;5139523;27;46393;-82
2023/08/01 11:22:33;;;;;;;;;6.75;3.50;;;;;23.57;46.70;100003.88;5139260;27;45383;-80
2023/08/01 11:24:59;;;;;;;;;2.00;2.00;;;;;23.66;46.53;99988.34;5139285;27;45434;-81
2023/08/01 11:27:26;;;;;;;;;3.50;3.50;;;;;23.68;46.37;99995.28;5139429;27;45450;-81